Flight Track Log - Related Links

Times and Time Zones

All times are in EDT time to prevent confusion due to time zone crossing. See the N779NC flight status page for this flight to view local times or setup timezone preferences in your user account.

Time Position Orientation Groundspeed Altitude Reporting Facility
EDT Latitude Longitude Course Direction KTS MPH feet Rate Location/Type
Sat 07:49:03 AM 42.2017 -83.3553 180° South 144 166 1,600  Level Cleveland Center
Sat 07:50:28 AM 42.1261 -83.3717 189° South 213 245 5,000 2,548 Climbing Cleveland Center
Sat 07:51:29 AM 42.0611 -83.3911 193° South 248 285 7,800 2,690 Climbing Cleveland Center
Sat 07:52:00 AM 41.8363 -83.5782 180° South  Level Estimated
Sat 07:52:24 AM 41.9981 -83.4053 189° South 277 319 10,200  Level Cleveland Center
Sat 07:53:00 AM 41.7422 -83.6340 180° South  Level Estimated
Sat 07:53:24 AM 41.9206 -83.4297 193° South 283 326 12,100  Level Cleveland Center
Sat 07:54:00 AM 41.6481 -83.6896 180° South  Level Estimated
Sat 07:54:24 AM 41.8300 -83.4592 194° South 303 349 13,200  Level Cleveland Center
Sat 07:55:24 AM 41.7272 -83.4908 193° South 344 396 15,100 2,150 Climbing Cleveland Center
Sat 07:56:24 AM 41.6261 -83.5278 195° South 369 425 17,500 2,350 Climbing Cleveland Center
Sat 07:57:24 AM 41.5228 -83.5675 196° South 382 440 19,800 2,350 Climbing Cleveland Center
Sat 07:58:24 AM 41.4258 -83.6075 197° South 382 440 22,200 2,400 Climbing Cleveland Center
Sat 07:59:24 AM 41.3289 -83.6497 198° South 377 434 24,600 2,000 Climbing Cleveland Center
Sat 08:00:24 AM 41.2361 -83.6842 196° South 363 418 26,200 1,250 Climbing Cleveland Center
Sat 08:01:24 AM 41.1353 -83.7153 193° South 363 418 27,100 826 Climbing Cleveland Center
Sat 08:02:13 AM 41.0642 -83.7394 194° South 384 442 27,700 1,255 Climbing Indianapolis Center
Sat 08:03:14 AM 40.9475 -83.7828 196° South 392 451 29,400 1,525 Climbing Indianapolis Center
Sat 08:04:15 AM 40.8447 -83.8258 198° South 387 445 30,800 1,574 Climbing Indianapolis Center
Sat 08:05:16 AM 40.7444 -83.8706 199° South 380 437 32,600 1,328 Climbing Indianapolis Center
Sat 08:06:17 AM 40.6475 -83.9139 199° South 368 423 33,500 689 Climbing Indianapolis Center
Sat 08:07:18 AM 40.5486 -83.9583 199° South 372 428 34,000 246 Climbing Indianapolis Center
Sat 08:08:19 AM 40.4444 -84.0003 197° South 386 444 34,000  Level Indianapolis Center
Sat 08:09:20 AM 40.3331 -84.0192 187° South 399 459 34,000  Level Indianapolis Center
Sat 08:10:21 AM 40.2222 -84.0436 190° South 403 464 34,000  Level Indianapolis Center
Sat 08:11:22 AM 40.1117 -84.0700 190° South 402 463 34,000  Level Indianapolis Center
Sat 08:12:23 AM 39.9992 -84.0811 184° South 403 464 34,000  Level Indianapolis Center
Sat 08:13:24 AM 39.8878 -84.1028 188° South 403 464 34,000  Level Indianapolis Center
Sat 08:14:25 AM 39.7767 -84.1236 188° South 402 463 34,000  Level Indianapolis Center
Sat 08:15:26 AM 39.6650 -84.1408 187° South 403 464 34,000  Level Indianapolis Center
Sat 08:16:27 AM 39.5328 -84.1483 183° South 404 465 34,000  Level Indianapolis Center
Sat 08:17:28 AM 39.4197 -84.1553 183° South 406 467 34,000  Level Indianapolis Center
Sat 08:18:29 AM 39.3058 -84.1692 185° South 408 470 34,000  Level Indianapolis Center
Sat 08:19:30 AM 39.1922 -84.1842 186° South 408 470 34,000  Level Indianapolis Center
Sat 08:20:31 AM 39.0783 -84.2067 189° South 412 474 34,000  Level Indianapolis Center
Sat 08:21:32 AM 38.9667 -84.2256 187° South 403 464 34,000  Level Indianapolis Center
Sat 08:22:34 AM 38.8553 -84.2564 192° South 405 466 34,000  Level Indianapolis Center
Sat 08:23:35 AM 38.7456 -84.2900 193° South 401 461 34,000 49 Level Indianapolis Center
Sat 08:24:36 AM 38.6317 -84.3244 193° South 404 465 34,100  Climbing Indianapolis Center
Sat 08:25:37 AM 38.5203 -84.3406 186° South 402 463 34,000 -49 Descending Indianapolis Center
Sat 08:26:38 AM 38.4086 -84.3583 187° South 403 464 34,000  Level Indianapolis Center
Sat 08:27:40 AM 38.2989 -84.3761 187° South 398 458 34,000 49 Level Indianapolis Center
Sat 08:28:41 AM 38.1878 -84.4011 190° South 401 461 34,100 -197 Climbing Indianapolis Center
Sat 08:29:42 AM 38.0756 -84.4303 192° South 407 468 33,600 -738 Descending Indianapolis Center
Sat 08:30:43 AM 37.9647 -84.4636 193° South 409 471 32,600 -738 Descending Indianapolis Center
Sat 08:31:44 AM 37.8461 -84.5181 200° South 391 450 32,100 -246 Descending Indianapolis Center
Sat 08:32:45 AM 37.7458 -84.5733 204° Southwest 390 449 32,100  Level Indianapolis Center
Sat 08:33:47 AM 37.6486 -84.6297 205° Southwest 385 443 32,100  Level Indianapolis Center
Sat 08:34:48 AM 37.5503 -84.6881 205° Southwest 387 445 32,100  Level Indianapolis Center
Sat 08:35:49 AM 37.4547 -84.7439 205° Southwest 380 437 32,100  Level Indianapolis Center
Sat 08:36:50 AM 37.3558 -84.7950 202° Southwest 384 442 32,100 -293 Level Indianapolis Center
Sat 08:37:52 AM 37.2561 -84.8367 198° South 380 437 31,500 -1,122 Descending Indianapolis Center
Sat 08:38:53 AM 37.1472 -84.8767 196° South 406 467 29,800 -1,623 Descending Indianapolis Center
Sat 08:39:54 AM 37.0339 -84.9225 198° South 411 473 28,200 -1,623 Descending Indianapolis Center
Sat 08:40:55 AM 36.9306 -84.9792 204° Southwest 411 473 26,500 -1,770 Descending Indianapolis Center
Sat 08:41:56 AM 36.8736 -85.1033 240° Southwest 427 491 24,600 -2,195 Descending Indianapolis Center
Sat 08:42:58 AM 36.8356 -85.2417 251° West 426 490 22,000 -2,098 Descending Indianapolis Center
Sat 08:43:59 AM 36.7919 -85.4036 251° West 412 474 20,300 -934 Descending Indianapolis Center
Sat 08:45:00 AM 36.7536 -85.5303 249° West 396 456 20,100 -295 Descending Indianapolis Center
Sat 08:46:01 AM 36.7119 -85.6525 247° West 388 447 19,700 -1,869 Descending Indianapolis Center
Sat 08:47:02 AM 36.6681 -85.7703 245° Southwest 380 437 16,300 -3,122 Descending Indianapolis Center
Sat 08:48:04 AM 36.6186 -85.8761 240° Southwest 370 426 13,300 -2,244 Descending Indianapolis Center
Sat 08:49:05 AM 36.5719 -85.9736 239° Southwest 331 381 11,700 -1,131 Descending Indianapolis Center
Sat 08:50:06 AM 36.5236 -86.0661 237° Southwest 318 366 11,000 -293 Descending Indianapolis Center
Sat 08:51:08 AM 36.4697 -86.1558 233° Southwest 318 366 11,100 49 Climbing Indianapolis Center
Sat 08:52:09 AM 36.3997 -86.2433 225° Southwest 348 400 11,100 -295 Level Indianapolis Center
Sat 08:53:10 AM 36.3400 -86.3206 226° Southwest 311 358 10,500 -864 Descending Indianapolis Center
Sat 08:54:14 AM 36.2872 -86.3997 230° Southwest 270 311 9,300 -1,500 Descending Memphis Center
Sat 08:55:14 AM 36.2456 -86.4633 231° Southwest 245 282 7,400 -1,900 Descending Memphis Center

Login

Don't have an account? Register now (free) for customized features, flight alerts, and more!